Time;durP1;ratioP1;P1;durP2;ratioP2;P2;SDS_P1;SDS_P2;PMS_P1;PMS_P2;Temp;Humidity;BMP_temperature;BMP_pressure;BME280_temperature;BME280_humidity;BME280_pressure;Samples;Min_cycle;Max_cycle;Signal;HPM_P1;HPM_P2
2021/07/31 00:00:21;;;;;;;;;;;16.90;67.00;;;;;;5012411;28;19941;-84
2021/07/31 00:02:47;;;;;;;;;;;16.90;67.80;;;;;;4994919;28;19909;-84
2021/07/31 00:05:13;;;;;;;;;;;16.80;66.50;;;;;;5012659;28;19913;-84
2021/07/31 00:07:40;;;;;;;;;;;16.80;66.30;;;;;;4995014;28;19913;-84
2021/07/31 00:10:06;;;;;;;;;;;16.80;66.20;;;;;;5012782;28;20369;-85
2021/07/31 00:12:31;;;;;;;;;;;16.80;66.40;;;;;;4995129;28;19905;-84
2021/07/31 00:14:57;;;;;;;;;;;16.70;66.70;;;;;;4990595;28;19960;-85
2021/07/31 00:17:22;;;;;;;;;;;16.70;67.50;;;;;;4993461;28;20363;-83
2021/07/31 00:19:48;;;;;;;;;;;16.70;67.40;;;;;;5012270;28;19909;-84
2021/07/31 00:22:13;;;;;;;;;;;16.70;67.30;;;;;;4990038;28;19906;-84
2021/07/31 00:24:39;;;;;;;;;;;16.70;67.10;;;;;;4998899;28;20001;-85
2021/07/31 00:27:04;;;;;;;;;;;16.70;67.80;;;;;;4983433;28;19920;-84
2021/07/31 00:29:30;;;;;;;;;;;16.70;67.20;;;;;;4986854;28;19963;-84
2021/07/31 00:31:55;;;;;;;;;;;16.70;67.10;;;;;;4985146;28;19928;-83
2021/07/31 00:34:21;;;;;;;;;;;16.70;66.90;;;;;;5011721;28;19914;-84
2021/07/31 00:36:46;;;;;;;;;;;16.80;67.90;;;;;;5012776;28;19924;-83
2021/07/31 00:39:12;;;;;;;;;;;16.90;67.50;;;;;;4988382;28;20358;-84
2021/07/31 00:41:37;;;;;;;;;;;16.90;67.50;;;;;;4987771;28;19913;-84
2021/07/31 00:44:03;;;;;;;;;;;17.00;67.30;;;;;;4990607;28;19909;-85
2021/07/31 00:46:28;;;;;;;;;;;17.00;67.80;;;;;;5011659;28;19917;-84
2021/07/31 00:48:54;;;;;;;;;;;17.00;67.60;;;;;;4994959;28;19959;-85
2021/07/31 00:51:20;;;;;;;;;;;17.00;67.40;;;;;;4994595;28;19913;-86
2021/07/31 00:53:47;;;;;;;;;;;17.10;67.50;;;;;;5011902;28;19910;-84
2021/07/31 00:56:13;;;;;;;;;;;17.00;67.80;;;;;;4993094;28;19909;-84
2021/07/31 00:58:39;;;;;;;;;;;17.10;67.60;;;;;;4997144;28;19910;-84
2021/07/31 01:01:04;;;;;;;;;;;17.10;67.70;;;;;;4994394;28;19945;-84
2021/07/31 01:03:30;;;;;;;;;;;17.10;67.00;;;;;;5011737;28;20344;-84
2021/07/31 01:05:56;;;;;;;;;;;17.10;67.80;;;;;;4994165;28;19909;-85
2021/07/31 01:08:21;;;;;;;;;;;17.10;67.70;;;;;;5011897;28;20251;-84
2021/07/31 01:10:47;;;;;;;;;;;17.20;67.70;;;;;;5011901;28;20021;-84
2021/07/31 01:13:13;;;;;;;;;;;17.10;67.30;;;;;;5011878;28;19945;-84
2021/07/31 01:15:57;;;;;;;;;;;17.10;67.30;;;;;;5012050;28;20321;-85
2021/07/31 01:18:23;;;;;;;;;;;17.10;66.80;;;;;;4994072;28;19953;-84
2021/07/31 01:20:48;;;;;;;;;;;17.10;67.40;;;;;;4994095;28;20412;-84
2021/07/31 01:23:14;;;;;;;;;;;17.10;67.30;;;;;;5011727;28;19967;-84
2021/07/31 01:25:39;;;;;;;;;;;17.00;67.40;;;;;;5011649;28;19910;-84
2021/07/31 01:28:05;;;;;;;;;;;17.00;67.30;;;;;;4994410;28;19921;-85
2021/07/31 01:30:30;;;;;;;;;;;17.00;67.70;;;;;;4987103;28;19992;-83
2021/07/31 01:32:57;;;;;;;;;;;17.00;67.90;;;;;;5007438;28;19910;-84
2021/07/31 01:35:22;;;;;;;;;;;17.00;67.80;;;;;;5011447;28;19925;-84
2021/07/31 01:37:48;;;;;;;;;;;17.00;68.20;;;;;;5011519;28;19914;-85
2021/07/31 01:40:13;;;;;;;;;;;17.00;68.60;;;;;;4994094;28;19998;-84
2021/07/31 01:42:39;;;;;;;;;;;17.00;68.30;;;;;;5012049;28;19952;-85
2021/07/31 01:45:05;;;;;;;;;;;17.00;68.20;;;;;;5012304;28;20259;-85
2021/07/31 01:47:30;;;;;;;;;;;17.00;68.50;;;;;;4993106;28;19931;-85
2021/07/31 01:49:56;;;;;;;;;;;17.10;68.40;;;;;;4995927;28;19913;-85
2021/07/31 01:52:21;;;;;;;;;;;17.00;68.30;;;;;;4997243;28;19912;-86
2021/07/31 01:54:47;;;;;;;;;;;17.10;68.90;;;;;;5015273;28;19913;-85
2021/07/31 01:57:13;;;;;;;;;;;17.00;68.40;;;;;;4997063;28;19916;-85
2021/07/31 01:59:38;;;;;;;;;;;17.00;68.30;;;;;;4992702;28;19917;-85
2021/07/31 02:02:05;;;;;;;;;;;17.00;68.90;;;;;;4997087;28;20316;-85
2021/07/31 02:04:31;;;;;;;;;;;17.00;69.10;;;;;;4999002;28;19909;-86
2021/07/31 02:06:56;;;;;;;;;;;17.00;68.40;;;;;;4997656;28;19959;-85
2021/07/31 02:09:22;;;;;;;;;;;17.00;68.90;;;;;;5014535;28;19917;-85
2021/07/31 02:11:47;;;;;;;;;;;17.00;69.00;;;;;;5014335;28;19960;-85
2021/07/31 02:14:13;;;;;;;;;;;17.00;69.20;;;;;;4992107;28;20348;-85
2021/07/31 02:16:38;;;;;;;;;;;17.00;68.80;;;;;;4996673;28;19909;-85
2021/07/31 02:19:04;;;;;;;;;;;17.00;69.10;;;;;;4997139;28;19919;-86
2021/07/31 02:21:29;;;;;;;;;;;17.00;68.80;;;;;;5014553;28;19937;-85
2021/07/31 02:23:55;;;;;;;;;;;17.00;69.10;;;;;;5014177;28;19914;-86
2021/07/31 02:26:20;;;;;;;;;;;17.00;69.10;;;;;;4996645;28;19913;-86
2021/07/31 02:28:46;;;;;;;;;;;17.00;69.00;;;;;;5013942;28;19913;-85
2021/07/31 02:31:12;;;;;;;;;;;17.00;69.20;;;;;;5002961;28;19906;-86
2021/07/31 02:33:38;;;;;;;;;;;17.00;69.10;;;;;;4992725;28;19909;-85
2021/07/31 02:36:03;;;;;;;;;;;17.00;69.30;;;;;;4996374;28;19996;-83
2021/07/31 02:38:29;;;;;;;;;;;17.00;68.70;;;;;;4996356;28;20008;-84
2021/07/31 02:40:55;;;;;;;;;;;17.00;69.50;;;;;;5014201;28;20451;-84
2021/07/31 02:43:20;;;;;;;;;;;16.90;69.20;;;;;;5014021;28;19916;-84
2021/07/31 02:45:45;;;;;;;;;;;16.90;69.80;;;;;;4996862;28;20297;-83
2021/07/31 02:48:11;;;;;;;;;;;16.90;69.40;;;;;;5013891;28;19909;-83
2021/07/31 02:50:36;;;;;;;;;;;16.90;69.30;;;;;;4996207;28;19916;-84
2021/07/31 02:53:02;;;;;;;;;;;16.80;69.40;;;;;;5013998;28;19948;-81
2021/07/31 02:55:28;;;;;;;;;;;16.80;69.60;;;;;;5013697;28;19918;-83
2021/07/31 02:57:53;;;;;;;;;;;16.70;69.30;;;;;;4995657;28;19912;-83
2021/07/31 03:00:19;;;;;;;;;;;16.70;69.90;;;;;;5013586;28;19936;-83
2021/07/31 03:02:44;;;;;;;;;;;16.60;69.50;;;;;;5013501;28;19945;-83
2021/07/31 03:05:10;;;;;;;;;;;16.50;69.60;;;;;;5013558;28;19909;-84
2021/07/31 03:07:36;;;;;;;;;;;16.50;70.20;;;;;;4996029;28;19921;-83
2021/07/31 03:10:01;;;;;;;;;;;16.50;70.10;;;;;;4996549;28;19915;-83
2021/07/31 03:12:27;;;;;;;;;;;16.50;70.70;;;;;;4995444;28;19910;-83
2021/07/31 03:14:52;;;;;;;;;;;16.50;70.60;;;;;;4995692;28;19926;-83
2021/07/31 03:17:21;;;;;;;;;;;16.60;70.50;;;;;;5013154;28;19921;-83
2021/07/31 03:19:46;;;;;;;;;;;16.60;70.40;;;;;;4995640;28;19920;-83
2021/07/31 03:22:12;;;;;;;;;;;16.60;70.50;;;;;;4995778;28;19905;-83
2021/07/31 03:24:38;;;;;;;;;;;16.60;70.70;;;;;;4995957;28;19910;-83
2021/07/31 03:27:06;;;;;;;;;;;16.60;70.40;;;;;;4990888;28;19947;-83
2021/07/31 03:29:35;;;;;;;;;;;16.60;71.30;;;;;;4995389;28;19945;-84
2021/07/31 03:32:00;;;;;;;;;;;16.60;70.50;;;;;;5001600;28;19913;-84
2021/07/31 03:34:26;;;;;;;;;;;16.60;70.00;;;;;;5012942;28;19917;-83
2021/07/31 03:36:52;;;;;;;;;;;16.50;70.40;;;;;;4995941;28;19905;-84
2021/07/31 03:39:22;;;;;;;;;;;16.50;70.20;;;;;;4995400;28;20360;-85
2021/07/31 03:41:48;;;;;;;;;;;16.40;71.10;;;;;;5012550;28;19910;-84
2021/07/31 03:44:14;;;;;;;;;;;16.30;70.70;;;;;;4995120;28;19955;-84
2021/07/31 03:46:43;;;;;;;;;;;16.20;71.00;;;;;;5012713;28;19949;-84
2021/07/31 03:49:09;;;;;;;;;;;16.20;71.10;;;;;;5013069;28;19906;-83
2021/07/31 03:51:34;;;;;;;;;;;16.20;71.60;;;;;;4994501;28;20281;-83
2021/07/31 03:54:00;;;;;;;;;;;16.20;72.00;;;;;;4989299;28;19930;-83
2021/07/31 03:56:25;;;;;;;;;;;16.30;71.90;;;;;;4989133;28;19972;-83
2021/07/31 03:58:52;;;;;;;;;;;16.20;71.60;;;;;;4999654;28;19937;-83
2021/07/31 04:01:25;;;;;;;;;;;16.30;72.00;;;;;;5012523;28;19912;-86
2021/07/31 04:03:51;;;;;;;;;;;16.30;72.20;;;;;;4996323;28;19913;-85
2021/07/31 04:06:16;;;;;;;;;;;16.30;71.60;;;;;;4995558;28;20020;-84
2021/07/31 04:08:42;;;;;;;;;;;16.30;71.50;;;;;;4998120;28;19916;-84
2021/07/31 04:11:07;;;;;;;;;;;16.30;71.50;;;;;;5002479;28;19906;-84
2021/07/31 04:13:33;;;;;;;;;;;16.40;72.20;;;;;;5017960;28;19917;-83
2021/07/31 04:15:58;;;;;;;;;;;16.40;71.70;;;;;;5008702;28;19917;-84
2021/07/31 04:18:24;;;;;;;;;;;16.40;71.30;;;;;;5012112;28;19972;-83
2021/07/31 04:20:50;;;;;;;;;;;16.40;71.50;;;;;;5012128;28;20028;-84
2021/07/31 04:23:16;;;;;;;;;;;16.30;72.00;;;;;;5012100;28;19920;-84
2021/07/31 04:25:42;;;;;;;;;;;16.30;71.80;;;;;;4994515;28;19909;-84
2021/07/31 04:28:07;;;;;;;;;;;16.30;71.90;;;;;;4994869;28;19905;-84
2021/07/31 04:30:34;;;;;;;;;;;16.30;71.80;;;;;;4987577;28;20332;-84
2021/07/31 04:32:59;;;;;;;;;;;16.40;72.00;;;;;;4990726;28;19909;-84
2021/07/31 04:35:25;;;;;;;;;;;16.30;71.50;;;;;;4994386;28;19917;-83
2021/07/31 04:37:51;;;;;;;;;;;16.30;71.70;;;;;;5012082;28;19913;-83
2021/07/31 04:40:16;;;;;;;;;;;16.30;71.90;;;;;;4994498;28;19906;-84
2021/07/31 04:42:42;;;;;;;;;;;16.30;71.90;;;;;;4994927;28;19996;-84
2021/07/31 04:45:08;;;;;;;;;;;16.40;72.20;;;;;;5011966;28;19909;-84
2021/07/31 04:47:40;;;;;;;;;;;16.40;72.30;;;;;;4994268;28;19916;-84
2021/07/31 04:50:06;;;;;;;;;;;16.40;72.60;;;;;;5012150;28;19909;-85
2021/07/31 04:52:32;;;;;;;;;;;16.40;71.80;;;;;;4994284;28;20305;-84
2021/07/31 04:54:57;;;;;;;;;;;16.40;71.80;;;;;;5012538;28;19921;-85
2021/07/31 04:57:23;;;;;;;;;;;16.40;71.80;;;;;;5011870;28;19916;-85
2021/07/31 04:59:48;;;;;;;;;;;16.40;71.50;;;;;;4988548;28;19916;-84
2021/07/31 05:02:14;;;;;;;;;;;16.40;72.10;;;;;;4984358;28;20370;-85
2021/07/31 05:04:39;;;;;;;;;;;16.40;71.80;;;;;;4988639;28;19910;-84
2021/07/31 05:07:07;;;;;;;;;;;16.40;72.00;;;;;;4994371;28;19917;-85
2021/07/31 05:09:33;;;;;;;;;;;16.40;72.10;;;;;;5010776;28;19905;-83
2021/07/31 05:11:58;;;;;;;;;;;16.40;71.90;;;;;;4994065;28;19916;-84
2021/07/31 05:14:24;;;;;;;;;;;16.50;72.30;;;;;;4993998;28;19917;-82
2021/07/31 05:16:50;;;;;;;;;;;16.50;72.10;;;;;;5011609;28;19909;-82
2021/07/31 05:19:15;;;;;;;;;;;16.60;72.00;;;;;;5011857;28;20341;-82
2021/07/31 05:21:41;;;;;;;;;;;16.60;72.00;;;;;;5015589;28;20320;-83
2021/07/31 05:24:06;;;;;;;;;;;16.60;71.90;;;;;;5015303;28;19991;-83
2021/07/31 05:26:32;;;;;;;;;;;16.60;71.90;;;;;;5015192;28;19909;-83
2021/07/31 05:28:57;;;;;;;;;;;16.60;71.50;;;;;;5015425;28;19956;-83
2021/07/31 05:31:23;;;;;;;;;;;16.70;71.60;;;;;;5003793;28;19964;-83
2021/07/31 05:33:49;;;;;;;;;;;16.70;71.70;;;;;;5015745;28;20361;-83
2021/07/31 05:36:14;;;;;;;;;;;16.60;71.60;;;;;;5014813;28;19914;-84
2021/07/31 05:38:40;;;;;;;;;;;16.70;71.60;;;;;;4992786;28;20381;-84
2021/07/31 05:41:11;;;;;;;;;;;16.70;72.00;;;;;;4986364;28;20378;-84
2021/07/31 05:43:36;;;;;;;;;;;16.70;71.70;;;;;;5015249;28;19909;-84
2021/07/31 05:46:02;;;;;;;;;;;16.70;71.40;;;;;;5015608;28;19905;-83
2021/07/31 05:48:27;;;;;;;;;;;16.70;71.70;;;;;;5014825;28;19917;-83
2021/07/31 05:50:53;;;;;;;;;;;16.70;72.00;;;;;;5014700;28;19909;-83
2021/07/31 05:53:20;;;;;;;;;;;16.80;71.40;;;;;;5014866;28;19916;-86
2021/07/31 05:55:46;;;;;;;;;;;16.80;71.90;;;;;;5014776;28;19960;-83
2021/07/31 05:58:11;;;;;;;;;;;16.80;71.50;;;;;;5014892;28;19983;-83
2021/07/31 06:00:37;;;;;;;;;;;16.80;71.60;;;;;;5015271;28;19910;-83
2021/07/31 06:03:02;;;;;;;;;;;16.80;71.10;;;;;;5014876;28;19909;-83
2021/07/31 06:05:28;;;;;;;;;;;16.70;71.80;;;;;;5014533;28;19909;-84
2021/07/31 06:07:53;;;;;;;;;;;16.70;71.70;;;;;;5014712;28;19959;-84
2021/07/31 06:10:19;;;;;;;;;;;16.70;72.00;;;;;;4997179;28;19909;-83
2021/07/31 06:12:44;;;;;;;;;;;16.80;71.70;;;;;;4997547;28;19996;-83
2021/07/31 06:15:10;;;;;;;;;;;16.80;73.00;;;;;;5014279;28;19918;-83
2021/07/31 06:17:35;;;;;;;;;;;16.80;71.60;;;;;;5014388;28;19925;-84
2021/07/31 06:20:01;;;;;;;;;;;16.80;72.50;;;;;;4996566;28;19909;-84
2021/07/31 06:22:27;;;;;;;;;;;16.90;72.10;;;;;;5014521;28;19913;-84
2021/07/31 06:24:52;;;;;;;;;;;17.00;72.20;;;;;;4997469;28;19910;-84
2021/07/31 06:27:18;;;;;;;;;;;17.00;71.70;;;;;;5014143;28;19909;-83
2021/07/31 06:29:43;;;;;;;;;;;17.00;71.60;;;;;;5013458;28;19910;-83
2021/07/31 06:32:09;;;;;;;;;;;16.90;71.20;;;;;;5003360;28;19989;-83
2021/07/31 06:34:34;;;;;;;;;;;17.00;71.80;;;;;;5014044;28;19924;-83
2021/07/31 06:37:00;;;;;;;;;;;17.00;71.80;;;;;;4997088;28;19905;-84
2021/07/31 06:39:25;;;;;;;;;;;17.00;71.00;;;;;;4996269;28;19969;-83
2021/07/31 06:41:51;;;;;;;;;;;17.00;71.60;;;;;;4996363;28;20412;-83
2021/07/31 06:44:16;;;;;;;;;;;17.10;72.00;;;;;;5013973;28;19932;-83
2021/07/31 06:46:42;;;;;;;;;;;17.10;71.80;;;;;;4996206;28;20475;-83
2021/07/31 06:49:08;;;;;;;;;;;17.30;71.60;;;;;;4996093;28;20324;-83
2021/07/31 06:51:33;;;;;;;;;;;17.30;71.80;;;;;;5014096;28;19905;-84
2021/07/31 06:54:00;;;;;;;;;;;17.30;71.40;;;;;;5013432;28;19948;-83
2021/07/31 06:56:25;;;;;;;;;;;17.40;71.40;;;;;;5013721;28;19913;-83
2021/07/31 06:58:51;;;;;;;;;;;17.40;71.10;;;;;;5013654;28;20048;-83
2021/07/31 07:01:16;;;;;;;;;;;17.40;71.30;;;;;;4996123;28;19909;-84
2021/07/31 07:03:42;;;;;;;;;;;17.40;71.20;;;;;;5013669;28;19909;-83
2021/07/31 07:06:09;;;;;;;;;;;17.50;71.20;;;;;;4991563;28;19909;-84
2021/07/31 07:08:34;;;;;;;;;;;17.50;71.80;;;;;;5013364;28;19909;-86
2021/07/31 07:11:00;;;;;;;;;;;17.60;72.10;;;;;;5013473;28;19909;-85
2021/07/31 07:13:26;;;;;;;;;;;17.60;71.20;;;;;;5013475;28;20370;-83
2021/07/31 07:15:52;;;;;;;;;;;17.70;71.20;;;;;;5013833;28;19913;-85
2021/07/31 07:18:17;;;;;;;;;;;17.70;71.30;;;;;;5013001;28;19924;-83
2021/07/31 07:20:43;;;;;;;;;;;17.80;71.00;;;;;;5013074;28;19909;-83
2021/07/31 07:23:08;;;;;;;;;;;17.80;71.10;;;;;;5013286;28;20016;-84
2021/07/31 07:25:34;;;;;;;;;;;17.80;70.80;;;;;;5013024;28;19956;-83
2021/07/31 07:28:00;;;;;;;;;;;17.80;70.60;;;;;;4996276;28;20377;-84
2021/07/31 07:30:26;;;;;;;;;;;17.90;70.80;;;;;;4989063;28;19920;-83
2021/07/31 07:32:53;;;;;;;;;;;18.00;70.80;;;;;;4990212;28;19909;-83
2021/07/31 07:35:18;;;;;;;;;;;17.90;70.30;;;;;;4995184;28;19918;-82
2021/07/31 07:37:44;;;;;;;;;;;17.80;70.00;;;;;;5012761;28;20389;-84
2021/07/31 07:40:09;;;;;;;;;;;17.80;70.70;;;;;;5018269;28;19909;-83
2021/07/31 07:42:37;;;;;;;;;;;17.90;70.20;;;;;;4995155;28;19909;-82
2021/07/31 07:45:03;;;;;;;;;;;17.80;70.40;;;;;;5009524;28;19916;-75
2021/07/31 07:47:29;;;;;;;;;;;17.80;71.50;;;;;;5012027;28;19925;-76
2021/07/31 07:49:54;;;;;;;;;;;17.90;72.00;;;;;;5009664;28;19917;-77
2021/07/31 07:52:20;;;;;;;;;;;18.00;71.20;;;;;;5012268;28;20362;-75
2021/07/31 07:54:45;;;;;;;;;;;18.00;71.80;;;;;;5011812;28;19917;-75
2021/07/31 07:57:11;;;;;;;;;;;17.90;71.00;;;;;;5011889;28;19910;-75
2021/07/31 07:59:36;;;;;;;;;;;18.00;72.00;;;;;;5011841;28;19913;-77
2021/07/31 08:02:02;;;;;;;;;;;18.00;71.70;;;;;;5011891;28;19916;-76
2021/07/31 08:04:31;;;;;;;;;;;18.10;71.30;;;;;;5011839;28;20396;-77
2021/07/31 08:06:57;;;;;;;;;;;18.10;71.40;;;;;;5012392;28;19909;-76
2021/07/31 08:09:22;;;;;;;;;;;18.20;71.70;;;;;;5011762;28;19909;-74
2021/07/31 08:11:48;;;;;;;;;;;18.40;71.70;;;;;;5011871;28;19910;-76
2021/07/31 08:14:14;;;;;;;;;;;18.40;71.20;;;;;;5009871;28;19964;-75
2021/07/31 08:16:40;;;;;;;;;;;18.50;71.20;;;;;;5009193;28;19909;-75
2021/07/31 08:19:06;;;;;;;;;;;18.30;70.40;;;;;;5011890;28;19932;-77
2021/07/31 08:21:32;;;;;;;;;;;18.40;71.30;;;;;;5011616;28;19955;-77
2021/07/31 08:23:58;;;;;;;;;;;18.50;70.50;;;;;;5011566;28;20079;-76
2021/07/31 08:26:23;;;;;;;;;;;18.40;70.20;;;;;;5008828;28;19913;-75
2021/07/31 08:28:50;;;;;;;;;;;18.40;70.50;;;;;;5011711;28;19912;-75
2021/07/31 08:31:16;;;;;;;;;;;18.50;70.90;;;;;;5000676;28;19910;-76
2021/07/31 08:33:41;;;;;;;;;;;18.80;71.50;;;;;;5012504;28;19916;-77
2021/07/31 08:36:07;;;;;;;;;;;18.90;70.30;;;;;;5009562;28;20399;-75
2021/07/31 08:38:33;;;;;;;;;;;19.00;69.60;;;;;;5010553;28;19917;-74
2021/07/31 08:40:59;;;;;;;;;;;19.20;70.00;;;;;;5005727;28;19909;-75
2021/07/31 08:43:25;;;;;;;;;;;19.20;68.90;;;;;;5003480;28;19917;-75
2021/07/31 08:45:51;;;;;;;;;;;19.40;69.10;;;;;;5012058;28;20274;-75
2021/07/31 08:48:17;;;;;;;;;;;19.50;68.70;;;;;;5011674;28;20000;-75
2021/07/31 08:50:43;;;;;;;;;;;19.50;68.40;;;;;;5010678;28;20008;-77
2021/07/31 08:53:09;;;;;;;;;;;19.70;68.80;;;;;;5011841;28;20000;-77
2021/07/31 08:55:34;;;;;;;;;;;19.80;66.90;;;;;;5013921;28;19917;-75
2021/07/31 08:58:00;;;;;;;;;;;19.90;67.60;;;;;;5007860;28;19992;-75
2021/07/31 09:00:26;;;;;;;;;;;19.90;66.60;;;;;;5014570;28;19993;-75
2021/07/31 09:02:51;;;;;;;;;;;19.70;65.90;;;;;;5006828;28;19964;-76
2021/07/31 09:05:33;;;;;;;;;;;19.50;65.90;;;;;;5010679;28;19913;-79
2021/07/31 09:08:02;;;;;;;;;;;19.30;65.30;;;;;;5015014;28;19909;-77
2021/07/31 09:10:28;;;;;;;;;;;19.30;65.70;;;;;;4999141;28;19913;-82
2021/07/31 09:12:55;;;;;;;;;;;19.20;66.00;;;;;;4997955;28;20277;-79
2021/07/31 09:15:30;;;;;;;;;;;19.10;65.80;;;;;;5014780;28;19967;-80
2021/07/31 09:18:15;;;;;;;;;;;19.00;66.10;;;;;;5015329;28;19917;-76
2021/07/31 09:20:41;;;;;;;;;;;19.10;66.90;;;;;;5015151;28;19909;-77
2021/07/31 09:23:06;;;;;;;;;;;19.20;65.50;;;;;;5015556;28;20282;-76
2021/07/31 09:25:32;;;;;;;;;;;19.20;64.20;;;;;;5009532;28;19916;-75
2021/07/31 09:28:16;;;;;;;;;;;19.30;64.70;;;;;;5013955;28;19909;-75
2021/07/31 09:30:48;;;;;;;;;;;19.40;63.50;;;;;;5014155;28;19913;-75
2021/07/31 09:33:15;;;;;;;;;;;19.60;63.90;;;;;;5014031;28;20259;-80
2021/07/31 09:35:41;;;;;;;;;;;19.60;63.60;;;;;;5013543;28;19917;-78
2021/07/31 09:38:06;;;;;;;;;;;19.90;64.90;;;;;;5014335;28;19914;-76
2021/07/31 09:40:32;;;;;;;;;;;20.10;64.30;;;;;;4999490;28;20281;-78
2021/07/31 09:43:14;;;;;;;;;;;20.10;60.20;;;;;;5015503;28;19941;-76
2021/07/31 09:45:39;;;;;;;;;;;20.20;60.80;;;;;;5014993;28;20401;-77
2021/07/31 09:48:06;;;;;;;;;;;20.40;59.90;;;;;;5014612;28;19956;-77
2021/07/31 09:50:37;;;;;;;;;;;20.60;59.70;;;;;;5014683;28;19913;-77
2021/07/31 09:53:07;;;;;;;;;;;20.70;60.30;;;;;;5013507;28;19921;-78
2021/07/31 09:55:33;;;;;;;;;;;20.90;58.80;;;;;;4999228;28;19964;-80
2021/07/31 09:57:58;;;;;;;;;;;20.70;55.30;;;;;;5012921;28;20385;-80
2021/07/31 10:00:24;;;;;;;;;;;20.60;56.00;;;;;;4987551;28;19917;-80
2021/07/31 10:02:50;;;;;;;;;;;20.40;55.90;;;;;;5010492;28;20325;-80
2021/07/31 10:05:17;;;;;;;;;;;20.60;56.70;;;;;;5012467;28;19909;-77
2021/07/31 10:07:43;;;;;;;;;;;20.80;55.90;;;;;;5004766;28;19956;-76
2021/07/31 10:10:09;;;;;;;;;;;20.80;56.60;;;;;;5011259;28;19910;-79
2021/07/31 10:12:34;;;;;;;;;;;20.90;57.40;;;;;;5008227;28;19917;-76
2021/07/31 10:15:00;;;;;;;;;;;20.90;55.50;;;;;;5006003;28;19918;-80
2021/07/31 10:17:30;;;;;;;;;;;21.00;56.60;;;;;;4987404;28;19980;-80
2021/07/31 10:19:56;;;;;;;;;;;21.00;55.90;;;;;;5009642;28;19982;-79
2021/07/31 10:22:41;;;;;;;;;;;20.90;55.70;;;;;;4983728;28;19906;-78
2021/07/31 10:25:07;;;;;;;;;;;20.80;55.70;;;;;;5003018;28;20185;-79
2021/07/31 10:27:33;;;;;;;;;;;20.60;55.90;;;;;;5005557;28;19905;-75
2021/07/31 10:29:59;;;;;;;;;;;20.60;57.00;;;;;;5002495;28;19909;-76
2021/07/31 10:32:32;;;;;;;;;;;20.70;57.60;;;;;;5005112;28;19910;-76
2021/07/31 10:35:02;;;;;;;;;;;20.70;58.10;;;;;;4998262;28;20385;-76
2021/07/31 10:37:28;;;;;;;;;;;20.80;58.10;;;;;;5010838;28;20389;-77
2021/07/31 10:40:03;;;;;;;;;;;21.00;58.00;;;;;;5012402;28;19940;-82
2021/07/31 10:42:49;;;;;;;;;;;21.00;57.80;;;;;;5009055;28;19909;-84
2021/07/31 10:45:22;;;;;;;;;;;21.00;58.70;;;;;;4997280;28;20385;-76
2021/07/31 10:47:48;;;;;;;;;;;21.00;57.10;;;;;;5012525;28;20346;-76
2021/07/31 10:50:23;;;;;;;;;;;21.00;58.00;;;;;;5011371;28;20000;-75
2021/07/31 10:53:01;;;;;;;;;;;21.00;58.20;;;;;;5011630;28;19963;-75
2021/07/31 10:55:47;;;;;;;;;;;21.10;57.40;;;;;;5012108;28;19987;-75
2021/07/31 10:58:13;;;;;;;;;;;21.10;57.40;;;;;;4995620;28;19905;-74
2021/07/31 11:00:43;;;;;;;;;;;21.10;58.10;;;;;;5010468;28;19913;-75
2021/07/31 11:03:13;;;;;;;;;;;21.00;57.50;;;;;;5011616;28;19909;-74
2021/07/31 11:05:48;;;;;;;;;;;21.00;57.30;;;;;;5012716;28;19913;-74
2021/07/31 11:08:14;;;;;;;;;;;21.00;57.00;;;;;;5011651;28;20373;-75
2021/07/31 11:10:43;;;;;;;;;;;21.00;57.00;;;;;;5011526;28;19923;-77
2021/07/31 11:13:09;;;;;;;;;;;20.90;55.80;;;;;;5012928;28;19905;-75
2021/07/31 11:15:35;;;;;;;;;;;20.90;55.60;;;;;;5012723;28;19924;-75
2021/07/31 11:18:01;;;;;;;;;;;20.70;55.40;;;;;;5012328;28;19917;-77
2021/07/31 11:20:34;;;;;;;;;;;20.40;55.50;;;;;;5008242;28;19909;-77
2021/07/31 11:23:04;;;;;;;;;;;20.20;56.50;;;;;;5007932;28;19968;-74
2021/07/31 11:25:30;;;;;;;;;;;20.20;57.40;;;;;;5012228;28;20289;-74
2021/07/31 11:28:00;;;;;;;;;;;20.20;56.10;;;;;;5006341;28;19953;-80
2021/07/31 11:30:42;;;;;;;;;;;20.20;56.80;;;;;;5006400;28;20041;-79
2021/07/31 11:33:16;;;;;;;;;;;20.40;58.20;;;;;;5008524;28;19913;-79
2021/07/31 11:35:42;;;;;;;;;;;20.80;58.60;;;;;;5009707;28;19917;-80
2021/07/31 11:38:26;;;;;;;;;;;21.10;56.80;;;;;;5003051;28;20453;-77
2021/07/31 11:40:59;;;;;;;;;;;21.20;57.40;;;;;;5008238;28;19917;-80
2021/07/31 11:43:24;;;;;;;;;;;21.50;56.30;;;;;;5012719;28;20344;-80
2021/07/31 11:45:50;;;;;;;;;;;21.30;54.90;;;;;;5013390;28;20400;-81
2021/07/31 11:48:16;;;;;;;;;;;21.20;55.00;;;;;;5010773;28;19909;-82
2021/07/31 11:51:00;;;;;;;;;;;21.10;54.70;;;;;;5011701;28;20289;-80
2021/07/31 11:53:25;;;;;;;;;;;21.00;55.40;;;;;;5006761;28;20004;-82
2021/07/31 11:55:51;;;;;;;;;;;21.00;56.80;;;;;;5012572;28;20004;-83
2021/07/31 11:58:16;;;;;;;;;;;21.20;55.80;;;;;;5012757;28;20346;-79
2021/07/31 12:00:42;;;;;;;;;;;21.10;55.20;;;;;;5006419;28;19906;-79
2021/07/31 12:03:28;;;;;;;;;;;20.90;55.70;;;;;;5008880;28;19909;-79
2021/07/31 12:05:53;;;;;;;;;;;20.80;55.40;;;;;;4997913;28;20006;-81
2021/07/31 12:08:19;;;;;;;;;;;20.80;56.30;;;;;;5010906;28;20450;-81
2021/07/31 12:10:48;;;;;;;;;;;20.90;55.20;;;;;;5010493;28;19916;-80
2021/07/31 12:13:13;;;;;;;;;;;21.10;54.80;;;;;;5011742;28;19905;-80
2021/07/31 12:15:42;;;;;;;;;;;21.30;54.30;;;;;;5012199;28;19929;-86
2021/07/31 12:18:07;;;;;;;;;;;21.40;54.50;;;;;;5011736;28;20024;-80
2021/07/31 12:20:34;;;;;;;;;;;21.40;54.70;;;;;;5011800;28;20008;-87
2021/07/31 12:23:01;;;;;;;;;;;21.50;55.20;;;;;;5006745;28;19913;-87
2021/07/31 12:25:26;;;;;;;;;;;21.30;55.10;;;;;;4997947;28;19909;-82
2021/07/31 12:27:53;;;;;;;;;;;21.20;56.70;;;;;;5012401;28;20346;-82
2021/07/31 12:30:26;;;;;;;;;;;21.30;55.70;;;;;;5006236;28;19964;-82
2021/07/31 12:32:53;;;;;;;;;;;21.40;55.70;;;;;;5007039;28;19992;-81
2021/07/31 12:35:29;;;;;;;;;;;21.50;53.30;;;;;;5012132;28;19952;-81
2021/07/31 12:37:54;;;;;;;;;;;21.30;52.80;;;;;;5011844;28;20354;-82
2021/07/31 12:40:20;;;;;;;;;;;21.40;53.40;;;;;;5012202;28;19905;-82
2021/07/31 12:42:45;;;;;;;;;;;21.70;53.20;;;;;;5012809;28;19948;-82
2021/07/31 12:45:11;;;;;;;;;;;21.70;53.10;;;;;;4994325;28;20328;-83
2021/07/31 12:47:36;;;;;;;;;;;21.90;52.80;;;;;;5012098;28;19916;-82
2021/07/31 12:50:02;;;;;;;;;;;22.00;51.20;;;;;;5012029;28;19956;-83
2021/07/31 12:52:27;;;;;;;;;;;22.10;50.60;;;;;;5011644;28;19910;-83
2021/07/31 12:54:53;;;;;;;;;;;22.10;51.60;;;;;;5012551;28;19918;-82
2021/07/31 12:57:18;;;;;;;;;;;22.30;51.30;;;;;;5011946;28;19909;-82
2021/07/31 12:59:44;;;;;;;;;;;22.30;51.30;;;;;;5011922;28;19916;-82
2021/07/31 13:02:09;;;;;;;;;;;22.40;51.60;;;;;;5011992;28;19962;-83
2021/07/31 13:04:35;;;;;;;;;;;22.80;51.90;;;;;;5012001;28;19910;-82
2021/07/31 13:07:00;;;;;;;;;;;22.90;49.20;;;;;;4997009;28;19969;-82
2021/07/31 13:09:26;;;;;;;;;;;22.90;48.80;;;;;;5011451;28;19971;-82
2021/07/31 13:11:52;;;;;;;;;;;23.10;48.70;;;;;;5011760;28;20423;-82
2021/07/31 13:14:18;;;;;;;;;;;23.10;47.00;;;;;;5011540;28;19913;-82
2021/07/31 13:16:43;;;;;;;;;;;23.10;47.20;;;;;;5011614;28;20000;-83
2021/07/31 13:19:09;;;;;;;;;;;23.20;49.60;;;;;;5012090;28;19906;-83
2021/07/31 13:21:34;;;;;;;;;;;23.40;46.60;;;;;;4993284;28;19905;-82
2021/07/31 13:24:01;;;;;;;;;;;23.30;45.90;;;;;;5011619;28;19915;-83
2021/07/31 13:26:26;;;;;;;;;;;23.40;47.00;;;;;;5011566;28;19917;-82
2021/07/31 13:28:52;;;;;;;;;;;23.30;47.00;;;;;;5011820;28;19909;-83
2021/07/31 13:31:17;;;;;;;;;;;23.40;47.50;;;;;;5000046;28;20386;-83
2021/07/31 13:33:43;;;;;;;;;;;23.60;49.00;;;;;;5013218;28;20273;-83
2021/07/31 13:36:08;;;;;;;;;;;23.50;46.80;;;;;;5019657;28;19921;-83
2021/07/31 13:38:36;;;;;;;;;;;23.40;47.10;;;;;;5020006;28;19909;-83
2021/07/31 13:41:01;;;;;;;;;;;23.30;47.40;;;;;;5022252;28;20258;-83
2021/07/31 13:43:27;;;;;;;;;;;23.10;46.10;;;;;;5024634;28;19918;-82
2021/07/31 13:45:52;;;;;;;;;;;22.80;46.50;;;;;;5025080;28;19905;-82
2021/07/31 13:48:19;;;;;;;;;;;22.70;47.00;;;;;;5024915;28;19915;-82
2021/07/31 13:50:45;;;;;;;;;;;22.60;47.70;;;;;;5024138;28;19916;-83
2021/07/31 13:53:10;;;;;;;;;;;22.70;49.40;;;;;;5024537;28;19910;-82
2021/07/31 13:55:36;;;;;;;;;;;22.90;48.40;;;;;;5024890;28;19993;-83
2021/07/31 13:58:03;;;;;;;;;;;23.20;50.20;;;;;;5025261;28;19940;-83
2021/07/31 14:00:28;;;;;;;;;;;23.50;45.90;;;;;;5024591;28;19957;-82
2021/07/31 14:02:57;;;;;;;;;;;23.60;46.80;;;;;;4998552;28;19915;-82
2021/07/31 14:05:22;;;;;;;;;;;23.60;45.20;;;;;;5018081;28;19913;-82
2021/07/31 14:07:48;;;;;;;;;;;23.50;46.40;;;;;;5015112;28;19909;-82
2021/07/31 14:10:14;;;;;;;;;;;23.20;48.50;;;;;;5015111;28;19949;-83
2021/07/31 14:12:39;;;;;;;;;;;22.80;50.40;;;;;;5015453;28;19910;-82